createdAt,value
2022-12-11T00:04:42.971Z,71.77
2022-12-11T00:09:45.693Z,72.38
2022-12-11T00:14:48.332Z,72.29
2022-12-11T00:19:51.150Z,72.47
2022-12-11T00:24:53.881Z,72.47
2022-12-11T00:29:56.522Z,72.54
2022-12-11T00:34:59.236Z,72.28
2022-12-11T00:40:02.037Z,72.71
2022-12-11T00:45:05.821Z,73.24
2022-12-11T00:50:08.557Z,73.04
2022-12-11T00:55:11.964Z,73.05
2022-12-11T01:00:15.767Z,72.40
2022-12-11T01:05:18.494Z,73.78
2022-12-11T01:10:24.529Z,72.91
2022-12-11T01:15:30.202Z,73.12
2022-12-11T01:20:33.155Z,73.52
2022-12-11T01:25:38.489Z,73.14
2022-12-11T01:30:43.534Z,72.42
2022-12-11T01:35:46.222Z,72.81
2022-12-11T01:40:51.634Z,73.75
2022-12-11T01:45:54.381Z,73.26
2022-12-11T01:50:59.415Z,72.78
2022-12-11T01:56:04.297Z,72.82
2022-12-11T02:01:07.098Z,73.07
2022-12-11T02:06:33.913Z,73.54
2022-12-11T02:11:49.839Z,73.22
2022-12-11T02:17:05.770Z,73.43
2022-12-11T02:22:13.851Z,73.43
2022-12-11T02:27:29.936Z,73.06
2022-12-11T02:32:40.236Z,73.44
2022-12-11T02:37:45.743Z,73.50
2022-12-11T02:42:48.844Z,73.77
2022-12-11T02:47:52.976Z,73.68
2022-12-11T02:52:56.948Z,73.30
2022-12-11T02:58:22.863Z,73.90
2022-12-11T03:03:25.628Z,73.74
2022-12-11T03:08:28.397Z,73.22
2022-12-11T03:13:31.963Z,73.89
2022-12-11T03:18:52.032Z,73.29
2022-12-11T03:23:59.420Z,73.81
2022-12-11T03:29:06.492Z,73.63
2022-12-11T03:34:31.763Z,73.42
2022-12-11T03:39:38.884Z,73.84
2022-12-11T03:44:43.472Z,73.37
2022-12-11T03:49:46.765Z,73.41
2022-12-11T03:54:51.203Z,73.26
2022-12-11T03:59:53.978Z,73.31
2022-12-11T04:04:56.800Z,72.82
2022-12-11T04:09:59.307Z,73.51
2022-12-11T04:15:04.657Z,72.82
2022-12-11T04:20:27.517Z,73.25
2022-12-11T04:25:30.203Z,72.51
2022-12-11T04:30:34.451Z,73.04
2022-12-11T04:35:37.284Z,72.89
2022-12-11T04:40:39.963Z,72.74
2022-12-11T04:45:42.677Z,72.78
2022-12-11T04:50:45.437Z,72.55
2022-12-11T04:55:48.019Z,72.84
2022-12-11T05:00:50.841Z,71.96
2022-12-11T05:05:53.761Z,72.51
2022-12-11T05:11:01.346Z,72.42
2022-12-11T05:16:05.911Z,71.64
2022-12-11T05:21:11.847Z,71.82
2022-12-11T05:26:18.378Z,71.62
2022-12-11T05:31:26.281Z,71.40
2022-12-11T05:36:31.740Z,71.49
2022-12-11T05:41:34.551Z,71.36
2022-12-11T05:46:37.044Z,71.39
2022-12-11T05:51:40.456Z,71.32
2022-12-11T05:56:43.177Z,71.14
2022-12-11T06:01:46.487Z,70.92
2022-12-11T06:06:49.255Z,71.48
2022-12-11T06:11:51.963Z,71.60
2022-12-11T06:16:54.601Z,71.91
2022-12-11T06:21:57.230Z,71.28
2022-12-11T06:26:59.979Z,71.51
2022-12-11T06:32:03.069Z,71.15
2022-12-11T06:37:05.883Z,71.62
2022-12-11T06:42:08.536Z,72.37
2022-12-11T06:47:11.218Z,71.95
2022-12-11T06:52:18.371Z,72.03
2022-12-11T06:57:21.550Z,71.71
2022-12-11T07:02:24.026Z,72.19
2022-12-11T07:07:26.702Z,71.76
2022-12-11T07:12:29.403Z,71.73
2022-12-11T07:17:32.413Z,71.04
2022-12-11T07:22:35.456Z,71.69
2022-12-11T07:27:38.227Z,71.75
2022-12-11T07:32:40.929Z,71.77
2022-12-11T07:37:43.497Z,72.33
2022-12-11T07:42:46.447Z,71.78
2022-12-11T07:47:49.342Z,72.21
2022-12-11T07:52:52.401Z,72.46
2022-12-11T07:57:54.975Z,72.37
2022-12-11T08:02:57.610Z,72.01
2022-12-11T08:08:00.624Z,72.37
2022-12-11T08:13:03.176Z,72.54
2022-12-11T08:18:05.884Z,71.85
2022-12-11T08:23:08.634Z,72.47
2022-12-11T08:28:11.475Z,72.67
2022-12-11T08:33:13.987Z,72.65
2022-12-11T08:38:20.909Z,72.23
2022-12-11T08:43:26.487Z,72.27
2022-12-11T08:48:29.327Z,72.25
2022-12-11T08:53:32.914Z,72.44
2022-12-11T08:58:36.164Z,72.38
2022-12-11T09:03:40.371Z,72.45
2022-12-11T09:08:50.365Z,72.76
2022-12-11T09:13:55.300Z,72.89
2022-12-11T09:18:59.163Z,73.12
2022-12-11T09:24:02.515Z,72.85
2022-12-11T09:29:06.210Z,73.22
2022-12-11T09:34:11.802Z,72.55
2022-12-11T09:39:16.923Z,73.05
2022-12-11T09:44:34.777Z,72.93
2022-12-11T09:49:43.400Z,73.51
2022-12-11T09:54:59.858Z,72.99
2022-12-11T10:00:11.557Z,72.84
2022-12-11T10:05:32.541Z,73.06
2022-12-11T10:10:45.393Z,72.86
2022-12-11T10:15:57.253Z,73.42
2022-12-11T10:21:02.433Z,73.07
2022-12-11T10:26:08.685Z,72.81
2022-12-11T10:31:39.526Z,73.38
2022-12-11T10:36:42.977Z,73.20
2022-12-11T10:41:48.651Z,73.23
2022-12-11T10:47:18.099Z,72.99
2022-12-11T10:52:26.751Z,73.17
2022-12-11T10:57:34.711Z,73.61
2022-12-11T11:02:38.997Z,73.39
2022-12-11T11:07:42.245Z,73.40
2022-12-11T11:12:47.583Z,73.62
2022-12-11T11:18:01.291Z,73.60
2022-12-11T11:23:09.965Z,74.28
2022-12-11T11:28:21.550Z,74.03
2022-12-11T11:33:25.006Z,74.11
2022-12-11T11:38:37.714Z,74.38
2022-12-11T11:43:54.834Z,74.50
2022-12-11T11:49:26.403Z,74.23
2022-12-11T11:54:42.735Z,74.11
2022-12-11T11:59:48.190Z,74.21
2022-12-11T12:04:51.738Z,74.23
2022-12-11T12:10:12.821Z,74.69
2022-12-11T12:15:31.308Z,74.22
2022-12-11T12:20:36.881Z,74.05
2022-12-11T12:25:44.628Z,74.29
2022-12-11T12:31:02.578Z,74.46
2022-12-11T12:36:23.922Z,74.62
2022-12-11T12:41:54.188Z,74.50
2022-12-11T12:47:02.604Z,74.09
2022-12-11T12:52:07.533Z,73.96
2022-12-11T12:57:10.734Z,74.16
2022-12-11T13:02:14.736Z,74.30
2022-12-11T13:07:21.369Z,73.45
2022-12-11T13:12:52.135Z,74.01
2022-12-11T13:17:54.907Z,74.06
2022-12-11T13:23:36.377Z,73.61
2022-12-11T13:28:39.042Z,73.10
2022-12-11T13:33:49.793Z,73.39
2022-12-11T13:38:59.526Z,73.65
2022-12-11T13:44:03.459Z,73.12
2022-12-11T13:49:17.683Z,73.02
2022-12-11T13:54:20.445Z,73.10
2022-12-11T13:59:32.586Z,73.62
2022-12-11T14:04:35.837Z,73.28
2022-12-11T14:09:44.227Z,73.59
2022-12-11T14:14:53.307Z,73.79
2022-12-11T14:19:58.371Z,73.05
2022-12-11T14:25:08.675Z,73.23
2022-12-11T14:30:22.195Z,73.37
2022-12-11T14:35:34.257Z,72.69
2022-12-11T14:40:43.655Z,73.31
2022-12-11T14:45:49.039Z,73.68
2022-12-11T14:50:55.930Z,72.92
2022-12-11T14:56:01.910Z,73.03
2022-12-11T15:01:22.337Z,73.66
2022-12-11T15:06:29.262Z,73.57
2022-12-11T15:11:33.123Z,73.72
2022-12-11T15:16:39.016Z,73.03
2022-12-11T15:21:42.019Z,74.10
2022-12-11T15:26:46.343Z,73.16
2022-12-11T15:32:19.473Z,73.51
2022-12-11T15:37:27.970Z,73.34
2022-12-11T15:42:34.689Z,73.65
2022-12-11T15:47:37.721Z,73.34
2022-12-11T15:52:40.520Z,73.61
2022-12-11T15:57:46.817Z,73.03
2022-12-11T16:02:49.507Z,73.21
2022-12-11T16:07:56.852Z,72.79
2022-12-11T16:13:03.126Z,72.44
2022-12-11T16:18:12.742Z,72.25
2022-12-11T16:23:16.715Z,72.45
2022-12-11T16:28:21.519Z,71.71
2022-12-11T16:33:26.757Z,72.35
2022-12-11T16:38:29.749Z,72.26
2022-12-11T16:43:33.196Z,72.26
2022-12-11T16:48:36.143Z,72.13
2022-12-11T16:53:39.019Z,71.69
2022-12-11T16:58:41.789Z,71.78
2022-12-11T17:03:44.870Z,72.44
2022-12-11T17:08:47.981Z,72.14
2022-12-11T17:13:58.082Z,70.69
2022-12-11T17:19:01.015Z,71.05
2022-12-11T17:24:03.761Z,71.28
2022-12-11T17:29:06.524Z,70.88
2022-12-11T17:34:09.178Z,69.84
2022-12-11T17:39:11.877Z,70.86
2022-12-11T17:44:14.638Z,70.42
2022-12-11T17:49:17.649Z,70.96
2022-12-11T17:54:20.575Z,70.20
2022-12-11T17:59:23.277Z,70.24
2022-12-11T18:04:26.289Z,71.14
2022-12-11T18:09:29.026Z,70.12
2022-12-11T18:14:31.908Z,70.60
2022-12-11T18:19:34.684Z,71.00
2022-12-11T18:24:37.409Z,71.07
2022-12-11T18:29:40.267Z,70.38
2022-12-11T18:34:43.144Z,70.29
2022-12-11T18:39:45.832Z,70.23
2022-12-11T18:44:48.602Z,70.58
2022-12-11T18:49:51.392Z,69.85
2022-12-11T18:54:54.170Z,70.42
2022-12-11T18:59:57.309Z,70.10
2022-12-11T19:05:00.240Z,69.53
2022-12-11T19:10:02.900Z,70.09
2022-12-11T19:15:06.498Z,70.21
2022-12-11T19:20:40.159Z,69.92
2022-12-11T19:25:33.493Z,70.31
2022-12-11T19:30:36.289Z,70.48
2022-12-11T19:35:38.892Z,69.62
2022-12-11T19:40:42.829Z,70.14
2022-12-11T19:45:46.251Z,70.72
2022-12-11T19:50:49.084Z,70.01
2022-12-11T19:55:52.598Z,70.58
2022-12-11T20:00:55.362Z,70.22
2022-12-11T20:06:06.449Z,70.89
2022-12-11T20:11:15.883Z,70.17
2022-12-11T20:16:33.725Z,70.27
2022-12-11T20:21:43.386Z,69.89
2022-12-11T20:26:47.498Z,70.39
2022-12-11T20:31:51.393Z,70.06
2022-12-11T20:36:54.525Z,69.59
2022-12-11T20:41:57.226Z,69.66
2022-12-11T20:47:00.049Z,70.03
2022-12-11T20:52:03.018Z,69.59
2022-12-11T20:57:05.707Z,69.54
2022-12-11T21:02:11.485Z,69.60
2022-12-11T21:07:14.289Z,70.06
2022-12-11T21:12:16.958Z,70.31
2022-12-11T21:17:19.675Z,70.34
2022-12-11T21:22:22.422Z,70.33
2022-12-11T21:27:25.184Z,69.11
2022-12-11T21:32:28.095Z,68.90
2022-12-11T21:37:30.885Z,69.52
2022-12-11T21:42:33.828Z,69.25
2022-12-11T21:47:36.540Z,68.81
2022-12-11T21:52:39.418Z,69.41
2022-12-11T21:57:42.116Z,68.65
2022-12-11T22:02:44.748Z,69.54
2022-12-11T22:07:47.544Z,69.00
2022-12-11T22:12:50.335Z,69.41
2022-12-11T22:17:53.044Z,69.50
2022-12-11T22:22:55.675Z,68.50
2022-12-11T22:27:58.336Z,69.36
2022-12-11T22:33:01.104Z,69.47
2022-12-11T22:38:04.419Z,68.85
2022-12-11T22:43:07.260Z,68.21
2022-12-11T22:48:10.219Z,68.54
2022-12-11T22:53:13.150Z,68.42
2022-12-11T22:58:21.394Z,68.40
2022-12-11T23:03:24.447Z,68.42
2022-12-11T23:08:27.255Z,68.20
2022-12-11T23:13:30.009Z,68.46
2022-12-11T23:18:33.218Z,68.73
2022-12-11T23:23:35.984Z,67.88
2022-12-11T23:28:40.266Z,68.34
2022-12-11T23:33:42.981Z,68.70
2022-12-11T23:38:50.930Z,68.14
2022-12-11T23:43:57.158Z,68.25
2022-12-11T23:48:59.825Z,68.55
2022-12-11T23:54:02.476Z,67.88
2022-12-11T23:59:05.126Z,67.86
